createdAt,value
2023-04-11T00:00:38.104Z,1.45
2023-04-11T00:03:07.276Z,1.20
2023-04-11T00:05:34.973Z,1.02
2023-04-11T00:08:02.687Z,0.95
2023-04-11T00:10:30.253Z,1.00
2023-04-11T00:12:57.848Z,0.73
2023-04-11T00:15:26.847Z,1.00
2023-04-11T00:17:55.057Z,0.98
2023-04-11T00:20:24.111Z,0.85
2023-04-11T00:22:54.238Z,1.33
2023-04-11T00:25:21.884Z,1.20
2023-04-11T00:27:49.517Z,1.00
2023-04-11T00:30:17.117Z,1.25
2023-04-11T00:32:45.989Z,1.15
2023-04-11T00:35:13.618Z,1.38
2023-04-11T00:37:44.465Z,1.17
2023-04-11T00:40:12.992Z,1.20
2023-04-11T00:42:40.737Z,1.17
2023-04-11T00:45:08.884Z,1.17
2023-04-11T00:47:36.685Z,1.33
2023-04-11T00:50:04.636Z,1.23
2023-04-11T00:52:32.345Z,1.00
2023-04-11T00:55:02.626Z,1.20
2023-04-11T00:57:30.895Z,0.95
2023-04-11T00:59:59.220Z,0.85
2023-04-11T01:02:26.982Z,1.65
2023-04-11T01:04:54.803Z,0.65
2023-04-11T01:07:23.761Z,1.02
2023-04-11T01:09:52.363Z,1.30
2023-04-11T01:12:22.029Z,1.10
2023-04-11T01:14:50.224Z,1.20
2023-04-11T01:17:18.107Z,1.05
2023-04-11T01:19:45.704Z,1.20
2023-04-11T01:22:14.797Z,0.85
2023-04-11T01:24:43.966Z,1.42
2023-04-11T01:27:11.566Z,1.55
2023-04-11T01:29:39.496Z,0.77
2023-04-11T01:32:07.284Z,1.42
2023-04-11T01:34:35.897Z,0.98
2023-04-11T01:37:03.647Z,1.08
2023-04-11T01:39:31.359Z,0.50
2023-04-11T01:42:01.658Z,0.50
2023-04-11T01:44:29.235Z,1.15
2023-04-11T01:46:56.847Z,1.02
2023-04-11T01:49:25.037Z,1.25
2023-04-11T01:51:53.177Z,1.05
2023-04-11T01:54:21.388Z,0.52
2023-04-11T01:56:49.131Z,0.60
2023-04-11T01:59:18.152Z,0.93
2023-04-11T02:01:45.913Z,0.98
2023-04-11T02:04:13.748Z,1.17
2023-04-11T02:06:42.380Z,1.35
2023-04-11T02:09:10.036Z,1.25
2023-04-11T02:11:37.609Z,1.20
2023-04-11T02:14:06.314Z,0.95
2023-04-11T02:16:37.611Z,0.80
2023-04-11T02:19:06.792Z,0.80
2023-04-11T02:21:34.503Z,0.52
2023-04-11T02:24:02.072Z,0.98
2023-04-11T02:26:29.650Z,1.08
2023-04-11T02:28:57.467Z,1.20
2023-04-11T02:31:25.298Z,0.75
2023-04-11T02:33:54.322Z,1.75
2023-04-11T02:36:21.985Z,1.10
2023-04-11T02:38:49.603Z,0.60
2023-04-11T02:41:17.200Z,1.17
2023-04-11T02:43:44.847Z,1.10
2023-04-11T02:46:13.300Z,0.68
2023-04-11T02:48:44.291Z,1.00
2023-04-11T02:51:14.790Z,0.88
2023-04-11T02:53:42.599Z,0.90
2023-04-11T02:56:11.890Z,1.35
2023-04-11T02:58:41.626Z,0.73
2023-04-11T03:01:11.866Z,1.38
2023-04-11T03:03:40.159Z,1.25
2023-04-11T03:06:08.998Z,1.40
2023-04-11T03:08:39.612Z,0.98
2023-04-11T03:11:07.339Z,0.70
2023-04-11T03:13:37.035Z,1.15
2023-04-11T03:16:05.002Z,1.05
2023-04-11T03:18:33.375Z,0.98
2023-04-11T03:21:07.537Z,1.45
2023-04-11T03:23:35.432Z,0.93
2023-04-11T03:26:04.416Z,1.00
2023-04-11T03:28:32.027Z,0.95
2023-04-11T03:30:59.633Z,0.50
2023-04-11T03:33:27.441Z,0.88
2023-04-11T03:35:55.312Z,0.50
2023-04-11T03:38:22.917Z,0.50
2023-04-11T03:40:50.553Z,0.73
2023-04-11T03:43:22.879Z,0.98
2023-04-11T03:45:53.390Z,1.00
2023-04-11T03:48:53.555Z,0.88
2023-04-11T03:51:22.895Z,0.95
2023-04-11T03:54:10.755Z,1.45
2023-04-11T03:56:41.004Z,1.13
2023-04-11T03:59:16.253Z,0.90
2023-04-11T04:01:53.406Z,0.75
2023-04-11T04:04:21.246Z,1.33
2023-04-11T04:06:57.283Z,0.77
2023-04-11T04:09:32.499Z,0.63
2023-04-11T04:12:01.625Z,0.63
2023-04-11T04:14:46.602Z,0.55
2023-04-11T04:17:17.347Z,0.60
2023-04-11T04:19:45.442Z,1.13
2023-04-11T04:22:17.554Z,0.75
2023-04-11T04:24:51.793Z,0.90
2023-04-11T04:27:25.025Z,0.73
2023-04-11T04:30:03.018Z,0.68
2023-04-11T04:32:41.102Z,0.80
2023-04-11T04:35:11.975Z,0.90
2023-04-11T04:37:45.352Z,0.65
2023-04-11T04:40:26.037Z,1.08
2023-04-11T04:43:11.471Z,0.70
2023-04-11T04:45:47.992Z,0.90
2023-04-11T04:48:21.347Z,0.75
2023-04-11T04:50:48.930Z,0.75
2023-04-11T04:53:17.194Z,0.98
2023-04-11T04:55:49.584Z,1.13
2023-04-11T04:58:19.775Z,0.65
2023-04-11T05:00:50.419Z,1.08
2023-04-11T05:03:23.202Z,0.95
2023-04-11T05:05:52.404Z,0.80
2023-04-11T05:08:21.691Z,1.00
2023-04-11T05:10:49.571Z,0.88
2023-04-11T05:13:17.561Z,0.60
2023-04-11T05:15:49.672Z,0.98
2023-04-11T05:18:17.349Z,0.95
2023-04-11T05:20:46.207Z,0.30
2023-04-11T05:23:19.624Z,0.88
2023-04-11T05:25:47.862Z,0.55
2023-04-11T05:28:16.726Z,0.57
2023-04-11T05:30:44.355Z,0.63
2023-04-11T05:33:15.366Z,0.60
2023-04-11T05:35:44.452Z,0.75
2023-04-11T05:38:12.116Z,0.77
2023-04-11T05:40:40.964Z,0.55
2023-04-11T05:43:11.359Z,0.65
2023-04-11T05:45:39.829Z,0.85
2023-04-11T05:48:07.962Z,0.75
2023-04-11T05:50:37.269Z,1.42
2023-04-11T05:53:04.889Z,0.70
2023-04-11T05:55:32.528Z,1.00
2023-04-11T05:58:00.179Z,0.95
2023-04-11T06:00:30.959Z,1.10
2023-04-11T06:02:58.790Z,0.70
2023-04-11T06:05:26.834Z,1.00
2023-04-11T06:07:57.296Z,1.33
2023-04-11T06:10:24.905Z,1.20
2023-04-11T06:12:52.542Z,1.20
2023-04-11T06:15:20.444Z,1.58
2023-04-11T06:17:48.142Z,0.98
2023-04-11T06:20:16.393Z,1.10
2023-04-11T06:22:44.133Z,1.42
2023-04-11T06:25:13.245Z,1.40
2023-04-11T06:27:40.910Z,1.35
2023-04-11T06:30:09.161Z,1.20
2023-04-11T06:32:36.803Z,1.88
2023-04-11T06:35:04.517Z,0.57
2023-04-11T06:37:32.491Z,0.88
2023-04-11T06:40:00.210Z,1.05
2023-04-11T06:42:29.158Z,0.77
2023-04-11T06:44:58.695Z,1.83
2023-04-11T06:47:26.321Z,1.50
2023-04-11T06:49:54.518Z,1.05
2023-04-11T06:52:22.438Z,1.55
2023-04-11T06:54:50.301Z,1.83
2023-04-11T06:57:17.937Z,1.50
2023-04-11T06:59:46.895Z,1.20
2023-04-11T07:02:15.745Z,1.95
2023-04-11T07:04:43.520Z,1.77
2023-04-11T07:07:11.362Z,1.42
2023-04-11T07:09:38.992Z,1.60
2023-04-11T07:12:06.700Z,1.73
2023-04-11T07:14:34.310Z,1.95
2023-04-11T07:17:03.278Z,1.75
2023-04-11T07:19:30.842Z,1.42
2023-04-11T07:21:58.439Z,1.80
2023-04-11T07:24:26.041Z,1.67
2023-04-11T07:26:54.352Z,1.55
2023-04-11T07:29:21.942Z,2.15
2023-04-11T07:31:50.233Z,1.77
2023-04-11T07:34:19.181Z,1.70
2023-04-11T07:36:47.579Z,1.48
2023-04-11T07:39:15.935Z,1.80
2023-04-11T07:41:43.517Z,1.38
2023-04-11T07:44:11.120Z,1.40
2023-04-11T07:46:38.728Z,1.42
2023-04-11T07:49:06.325Z,1.70
2023-04-11T07:51:35.300Z,1.25
2023-04-11T07:54:03.177Z,2.03
2023-04-11T07:56:30.772Z,1.05
2023-04-11T07:58:58.609Z,1.83
2023-04-11T08:01:27.151Z,1.08
2023-04-11T08:03:55.813Z,1.45
2023-04-11T08:06:23.796Z,1.20
2023-04-11T08:08:52.734Z,0.93
2023-04-11T08:11:20.600Z,1.00
2023-04-11T08:13:48.200Z,1.23
2023-04-11T08:16:16.221Z,1.45
2023-04-11T08:18:45.691Z,1.70
2023-04-11T08:21:13.381Z,1.50
2023-04-11T08:23:42.222Z,1.13
2023-04-11T08:26:12.901Z,1.50
2023-04-11T08:28:42.673Z,1.27
2023-04-11T08:31:12.604Z,1.27
2023-04-11T08:33:40.700Z,1.15
2023-04-11T08:36:10.324Z,1.50
2023-04-11T08:38:38.725Z,1.23
2023-04-11T08:41:06.615Z,0.93
2023-04-11T08:43:35.729Z,1.17
2023-04-11T08:46:03.962Z,1.38
2023-04-11T08:48:32.385Z,1.20
2023-04-11T08:51:00.149Z,1.30
2023-04-11T08:53:28.548Z,1.50
2023-04-11T08:55:56.111Z,1.50
2023-04-11T08:58:23.747Z,1.13
2023-04-11T09:00:52.647Z,1.27
2023-04-11T09:03:20.323Z,1.05
2023-04-11T09:05:48.190Z,1.10
2023-04-11T09:08:17.058Z,1.40
2023-04-11T09:10:46.121Z,1.45
2023-04-11T09:13:21.626Z,1.10
2023-04-11T09:15:49.761Z,1.08
2023-04-11T09:18:34.416Z,1.00
2023-04-11T09:21:02.717Z,1.30
2023-04-11T09:23:30.289Z,1.55
2023-04-11T09:25:58.154Z,1.50
2023-04-11T09:28:25.777Z,1.30
2023-04-11T09:30:54.261Z,1.10
2023-04-11T09:33:22.960Z,0.93
2023-04-11T09:35:52.901Z,1.38
2023-04-11T09:38:30.665Z,1.30
2023-04-11T09:40:58.637Z,1.40
2023-04-11T09:43:26.313Z,1.10
2023-04-11T09:46:09.938Z,1.05
2023-04-11T09:48:46.578Z,1.00
2023-04-11T09:51:31.838Z,1.30
2023-04-11T09:54:03.364Z,1.00
2023-04-11T09:56:32.012Z,1.02
2023-04-11T09:59:00.840Z,0.90
2023-04-11T10:01:28.587Z,1.52
2023-04-11T10:03:57.456Z,1.30
2023-04-11T10:06:33.617Z,0.70
2023-04-11T10:09:06.266Z,1.10
2023-04-11T10:11:33.854Z,1.35
2023-04-11T10:14:01.437Z,1.05
2023-04-11T10:16:32.373Z,1.10
2023-04-11T10:19:19.538Z,0.85
2023-04-11T10:21:48.612Z,0.90
2023-04-11T10:24:17.436Z,1.27
2023-04-11T10:26:49.383Z,1.00
2023-04-11T10:29:40.590Z,1.17
2023-04-11T10:32:11.555Z,0.70
2023-04-11T10:34:40.711Z,1.20
2023-04-11T10:37:10.873Z,0.93
2023-04-11T10:40:02.543Z,1.23
2023-04-11T10:42:31.478Z,0.68
2023-04-11T10:45:13.907Z,0.63
2023-04-11T10:47:41.539Z,0.50
2023-04-11T10:50:24.045Z,1.10
2023-04-11T10:52:53.460Z,0.60
2023-04-11T10:55:21.369Z,0.50
2023-04-11T10:58:05.652Z,1.20
2023-04-11T11:01:04.591Z,0.93
2023-04-11T11:03:34.264Z,0.68
2023-04-11T11:06:03.037Z,0.93
2023-04-11T11:08:32.720Z,0.82
2023-04-11T11:11:01.047Z,0.98
2023-04-11T11:13:39.165Z,0.80
2023-04-11T11:16:07.469Z,0.85
2023-04-11T11:18:35.291Z,1.00
2023-04-11T11:21:02.887Z,0.90
2023-04-11T11:23:32.349Z,0.70
2023-04-11T11:26:00.245Z,0.50
2023-04-11T11:30:56.813Z,0.55
2023-04-11T11:33:25.007Z,0.90
2023-04-11T11:35:54.089Z,0.77
2023-04-11T11:38:21.809Z,0.88
2023-04-11T11:40:50.821Z,1.00
2023-04-11T11:43:18.413Z,1.00
2023-04-11T11:45:46.329Z,1.10
2023-04-11T11:48:20.662Z,0.93
2023-04-11T11:50:48.319Z,0.65
2023-04-11T11:53:16.566Z,0.73
2023-04-11T11:55:44.287Z,0.90
2023-04-11T11:58:13.400Z,1.05
2023-04-11T12:00:41.560Z,0.70
2023-04-11T12:03:10.914Z,0.77
2023-04-11T12:05:38.802Z,0.47
2023-04-11T12:08:07.365Z,0.40
2023-04-11T12:10:39.414Z,0.50
2023-04-11T12:13:15.600Z,0.77
2023-04-11T12:15:46.024Z,0.70
2023-04-11T12:18:13.917Z,0.70
2023-04-11T12:20:41.606Z,0.93
2023-04-11T12:23:09.213Z,1.02
2023-04-11T12:25:36.816Z,0.73
2023-04-11T12:28:04.419Z,0.43
2023-04-11T12:30:33.333Z,0.50
2023-04-11T12:33:01.020Z,0.80
2023-04-11T12:35:28.651Z,0.77
2023-04-11T12:37:56.519Z,0.70
2023-04-11T12:40:24.668Z,1.02
2023-04-11T12:42:56.295Z,0.88
2023-04-11T12:45:25.003Z,0.65
2023-04-11T12:47:54.430Z,0.93
2023-04-11T12:50:23.713Z,0.98
2023-04-11T12:52:51.746Z,0.95
2023-04-11T12:55:19.398Z,0.82
2023-04-11T12:57:47.020Z,0.95
2023-04-11T13:00:15.240Z,0.70
2023-04-11T13:02:44.860Z,0.57
2023-04-11T13:05:15.356Z,0.60
2023-04-11T13:07:44.835Z,0.50
2023-04-11T13:10:13.634Z,0.88
2023-04-11T13:12:44.191Z,0.40
2023-04-11T13:15:12.345Z,0.50
2023-04-11T13:17:40.348Z,0.50
2023-04-11T13:20:10.404Z,0.77
2023-04-11T13:22:40.957Z,0.93
2023-04-11T13:25:09.036Z,0.50
2023-04-11T13:27:37.270Z,0.60
2023-04-11T13:30:05.925Z,0.47
2023-04-11T13:32:33.623Z,0.55
2023-04-11T13:35:01.226Z,0.55
2023-04-11T13:37:29.040Z,0.50
2023-04-11T13:39:57.977Z,0.50
2023-04-11T13:42:26.031Z,0.70
2023-04-11T13:44:53.640Z,0.52
2023-04-11T13:47:21.261Z,0.50
2023-04-11T13:49:48.884Z,0.40
2023-04-11T13:52:16.452Z,0.65
2023-04-11T13:54:44.042Z,0.68
2023-04-11T13:57:12.951Z,0.47
2023-04-11T13:59:40.529Z,0.60
2023-04-11T14:02:08.367Z,0.47
2023-04-11T14:04:36.032Z,0.77
2023-04-11T14:07:03.747Z,0.63
2023-04-11T14:09:31.378Z,0.30
2023-04-11T14:11:58.947Z,0.40
2023-04-11T14:14:27.906Z,0.43
2023-04-11T14:16:55.596Z,0.40
2023-04-11T14:19:24.831Z,0.52
2023-04-11T14:21:52.541Z,0.43
2023-04-11T14:24:22.124Z,0.20
2023-04-11T14:26:50.372Z,0.60
2023-04-11T14:29:19.441Z,0.40
2023-04-11T14:31:51.042Z,0.75
2023-04-11T14:34:18.772Z,0.63
2023-04-11T14:36:46.451Z,1.70
2023-04-11T14:39:14.479Z,0.52
2023-04-11T14:41:42.067Z,0.50
2023-04-11T14:44:09.668Z,0.75
2023-04-11T14:46:37.343Z,0.65
2023-04-11T14:49:07.311Z,0.40
2023-04-11T14:51:35.650Z,0.47
2023-04-11T14:54:03.216Z,0.50
2023-04-11T14:56:30.813Z,0.70
2023-04-11T14:58:58.449Z,0.63
2023-04-11T15:01:26.535Z,0.50
2023-04-11T15:03:54.469Z,0.50
2023-04-11T15:06:23.752Z,0.50
2023-04-11T15:08:52.398Z,0.75
2023-04-11T15:11:20.112Z,0.65
2023-04-11T15:13:48.319Z,0.63
2023-04-11T15:16:16.923Z,0.90
2023-04-11T15:18:45.635Z,0.90
2023-04-11T15:21:13.215Z,0.98
2023-04-11T15:23:42.428Z,0.57
2023-04-11T15:26:10.026Z,0.50
2023-04-11T15:28:38.259Z,0.70
2023-04-11T15:31:06.988Z,0.60
2023-04-11T15:33:35.018Z,0.73
2023-04-11T15:36:03.226Z,0.82
2023-04-11T15:38:30.814Z,0.60
2023-04-11T15:41:00.322Z,0.60
2023-04-11T15:43:27.952Z,0.68
2023-04-11T15:45:55.704Z,0.40
2023-04-11T15:48:23.315Z,1.00
2023-04-11T15:50:51.666Z,0.50
2023-04-11T15:53:19.387Z,0.52
2023-04-11T15:55:47.614Z,0.63
2023-04-11T15:58:16.602Z,0.55
2023-04-11T16:00:44.722Z,0.60
2023-04-11T16:03:12.520Z,0.70
2023-04-11T16:05:42.924Z,0.45
2023-04-11T16:08:10.961Z,0.80
2023-04-11T16:10:38.609Z,0.60
2023-04-11T16:13:06.280Z,0.40
2023-04-11T16:15:35.225Z,0.40
2023-04-11T16:18:02.969Z,0.20
2023-04-11T16:20:32.816Z,0.52
2023-04-11T16:23:00.349Z,0.68
2023-04-11T16:25:27.992Z,0.75
2023-04-11T16:27:55.532Z,0.50
2023-04-11T16:30:23.093Z,0.55
2023-04-11T16:32:52.026Z,0.35
2023-04-11T16:35:19.695Z,0.40
2023-04-11T16:37:47.262Z,0.88
2023-04-11T16:40:15.699Z,0.60
2023-04-11T16:42:43.295Z,0.52
2023-04-11T16:45:11.664Z,0.30
2023-04-11T16:47:39.381Z,0.40
2023-04-11T16:50:09.407Z,0.50
2023-04-11T16:52:37.114Z,0.47
2023-04-11T16:55:04.904Z,0.70
2023-04-11T16:57:33.112Z,0.60
2023-04-11T17:00:01.185Z,0.70
2023-04-11T17:02:29.636Z,0.60
2023-04-11T17:04:57.442Z,0.80
2023-04-11T17:07:28.459Z,0.70
2023-04-11T17:09:56.283Z,0.52
2023-04-11T17:12:23.925Z,0.70
2023-04-11T17:14:52.574Z,0.82
2023-04-11T17:17:20.874Z,0.57
2023-04-11T17:19:48.501Z,0.55
2023-04-11T17:22:16.275Z,0.63
2023-04-11T17:24:45.235Z,0.70
2023-04-11T17:27:12.836Z,0.55
2023-04-11T17:29:40.475Z,0.50
2023-04-11T17:32:08.282Z,0.70
2023-04-11T17:34:35.960Z,0.65
2023-04-11T17:37:03.565Z,0.82
2023-04-11T17:39:31.342Z,0.68
2023-04-11T17:42:00.283Z,0.93
2023-04-11T17:44:27.862Z,0.70
2023-04-11T17:46:55.647Z,0.70
2023-04-11T17:49:24.877Z,0.77
2023-04-11T17:51:59.245Z,0.73
2023-04-11T17:54:27.208Z,0.47
2023-04-11T17:56:54.882Z,0.70
2023-04-11T17:59:24.134Z,0.50
2023-04-11T18:01:53.514Z,0.77
2023-04-11T18:04:21.522Z,1.08
2023-04-11T18:06:49.237Z,0.60
2023-04-11T18:09:17.222Z,0.60
2023-04-11T18:11:44.858Z,0.88
2023-04-11T18:14:12.419Z,0.98
2023-04-11T18:16:41.410Z,1.08
2023-04-11T18:19:09.235Z,1.30
2023-04-11T18:21:37.137Z,1.00
2023-04-11T18:24:04.867Z,1.25
2023-04-11T18:26:32.449Z,1.30
2023-04-11T18:29:00.980Z,1.20
2023-04-11T18:31:28.687Z,1.02
2023-04-11T18:33:58.108Z,1.10
2023-04-11T18:36:26.394Z,1.10
2023-04-11T18:38:55.665Z,1.17
2023-04-11T18:41:24.820Z,0.82
2023-04-11T18:43:52.460Z,0.90
2023-04-11T18:46:20.041Z,1.00
2023-04-11T18:48:47.639Z,1.00
2023-04-11T18:51:16.621Z,1.20
2023-04-11T18:53:44.975Z,0.80
2023-04-11T18:56:12.601Z,1.02
2023-04-11T18:58:45.589Z,1.10
2023-04-11T19:01:16.831Z,0.57
2023-04-11T19:03:44.947Z,0.77
2023-04-11T19:06:13.193Z,0.50
2023-04-11T19:08:42.265Z,0.65
2023-04-11T19:11:09.882Z,0.55
2023-04-11T19:13:37.551Z,0.65
2023-04-11T19:16:05.322Z,0.60
2023-04-11T19:18:33.120Z,0.50
2023-04-11T19:21:00.737Z,0.82
2023-04-11T19:23:28.363Z,0.60
2023-04-11T19:25:57.355Z,0.30
2023-04-11T19:28:24.927Z,0.65
2023-04-11T19:30:52.446Z,0.57
2023-04-11T19:33:20.049Z,0.60
2023-04-11T19:35:47.741Z,0.50
2023-04-11T19:38:15.367Z,0.20
2023-04-11T19:40:42.904Z,0.32
2023-04-11T19:43:12.050Z,0.57
2023-04-11T19:45:39.709Z,0.50
2023-04-11T19:48:07.376Z,0.50
2023-04-11T19:50:34.990Z,0.98
2023-04-11T19:53:03.105Z,0.93
2023-04-11T19:55:31.003Z,0.77
2023-04-11T19:57:58.826Z,0.70
2023-04-11T20:00:31.925Z,0.77
2023-04-11T20:02:59.666Z,0.65
2023-04-11T20:05:31.292Z,0.75
2023-04-11T20:07:59.135Z,0.30
2023-04-11T20:10:28.307Z,0.77
2023-04-11T20:12:55.879Z,0.50
2023-04-11T20:15:23.643Z,1.05
2023-04-11T20:17:52.613Z,0.60
2023-04-11T20:20:20.386Z,0.40
2023-04-11T20:22:48.144Z,0.40
2023-04-11T20:25:15.839Z,0.63
2023-04-11T20:27:43.620Z,0.52
2023-04-11T20:30:12.113Z,0.80
2023-04-11T20:32:40.042Z,0.40
2023-04-11T20:35:09.824Z,0.82
2023-04-11T20:37:37.691Z,0.82
2023-04-11T20:40:07.591Z,0.88
2023-04-11T20:42:39.760Z,0.90
2023-04-11T20:45:10.055Z,1.02
2023-04-11T20:47:38.261Z,1.13
2023-04-11T20:50:06.230Z,0.80
2023-04-11T20:52:35.338Z,0.50
2023-04-11T20:55:03.443Z,0.50
2023-04-11T20:57:31.102Z,0.90
2023-04-11T20:59:59.045Z,0.82
2023-04-11T21:02:27.653Z,0.70
2023-04-11T21:04:55.874Z,1.00
2023-04-11T21:07:23.603Z,1.08
2023-04-11T21:09:52.597Z,1.02
2023-04-11T21:12:20.185Z,0.95
2023-04-11T21:14:47.766Z,1.08
2023-04-11T21:17:15.333Z,0.80
2023-04-11T21:19:42.912Z,0.70
2023-04-11T21:22:10.487Z,1.00
2023-04-11T21:24:38.085Z,0.73
2023-04-11T21:27:07.001Z,1.10
2023-04-11T21:29:34.570Z,0.80
2023-04-11T21:32:02.328Z,0.73
2023-04-11T21:34:29.883Z,0.82
2023-04-11T21:36:57.866Z,0.80
2023-04-11T21:39:25.622Z,0.80
2023-04-11T21:41:53.187Z,0.80
2023-04-11T21:44:22.121Z,0.80
2023-04-11T21:46:49.741Z,0.73
2023-04-11T21:49:17.299Z,0.50
2023-04-11T21:51:44.852Z,0.90
2023-04-11T21:54:12.400Z,0.77
2023-04-11T21:56:43.500Z,0.70
2023-04-11T21:59:11.141Z,0.60
2023-04-11T22:01:41.480Z,0.50
2023-04-11T22:04:10.759Z,0.80
2023-04-11T22:06:38.829Z,0.63
2023-04-11T22:09:06.598Z,0.60
2023-04-11T22:11:34.180Z,0.55
2023-04-11T22:14:02.191Z,0.80
2023-04-11T22:16:31.424Z,0.77
2023-04-11T22:19:00.843Z,1.00
2023-04-11T22:21:31.840Z,0.73
2023-04-11T22:23:59.664Z,0.52
2023-04-11T22:26:29.385Z,0.88
2023-04-11T22:28:58.303Z,0.68
2023-04-11T22:31:30.257Z,0.95
2023-04-11T22:33:58.266Z,0.90
2023-04-11T22:36:27.337Z,0.57
2023-04-11T22:38:54.908Z,1.55
2023-04-11T22:41:24.106Z,0.38
2023-04-11T22:43:51.708Z,0.82
2023-04-11T22:46:19.278Z,0.80
2023-04-11T22:48:47.255Z,0.50
2023-04-11T22:51:16.259Z,0.43
2023-04-11T22:53:48.210Z,1.15
2023-04-11T22:56:16.037Z,0.80
2023-04-11T22:58:45.724Z,0.47
2023-04-11T23:01:13.728Z,0.60
2023-04-11T23:03:41.370Z,0.70
2023-04-11T23:06:09.525Z,0.55
2023-04-11T23:08:37.101Z,0.60
2023-04-11T23:11:07.237Z,0.38
2023-04-11T23:13:34.836Z,0.80
2023-04-11T23:16:02.444Z,0.60
2023-04-11T23:18:30.026Z,0.73
2023-04-11T23:20:58.156Z,0.98
2023-04-11T23:23:25.735Z,0.93
2023-04-11T23:25:53.301Z,0.73
2023-04-11T23:28:24.103Z,0.70
2023-04-11T23:30:51.746Z,0.82
2023-04-11T23:33:19.480Z,0.60
2023-04-11T23:35:47.078Z,0.85
2023-04-11T23:38:15.344Z,0.75
2023-04-11T23:40:42.981Z,0.70
2023-04-11T23:43:10.646Z,0.70
2023-04-11T23:45:39.578Z,0.70
2023-04-11T23:48:07.448Z,0.47
2023-04-11T23:50:35.020Z,0.40
2023-04-11T23:53:02.603Z,0.55
2023-04-11T23:55:32.168Z,0.52
2023-04-11T23:57:59.716Z,0.52
